• Join FlightAware (Why Join?)
  • Login
  • US Flag 
12:45PM EST


 

Airport Tracker/Info


-or-


 

Live Flight TrackerFlight Track Log ✈ DAL268 ✈ 02-Jun-2013 ✈ KJFK - LLBG / TLV

Flight Track Log - Related Links

Times and Time Zones

All times are in EDT time to prevent confusion due to time zone crossing. See the DAL268 flight status page for this flight to view local times or setup timezone preferences in your user account.

Time Position Orientation Groundspeed Altitude Reporting Facility
EDT Latitude Longitude Course Direction KTS MPH feet Rate Location/Type
11:27PM 40.6370 -73.7800 261° West  Level FlightAware
11:28PM 40.6370 -73.7790 90° East 14 16  Level FlightAware
11:29PM 40.6370 -73.7790 90° East 12 14  Level FlightAware
11:31PM 40.6360 -73.7790 180° South 60 Level FlightAware
11:33PM 40.5320 -73.4625 114° Southeast  Level FlightAware Approximate
11:34PM 40.4833 -73.3009 90° East  Level FlightAware Approximate
11:35PM 40.4314 -73.1399 119° Southeast  Level FlightAware Approximate
11:35PM 40.6360 -73.7780 119° Southeast 15 17  Level FlightAware
11:36PM 40.6350 -73.7780 180° South 18 21 60 Level FlightAware
11:36PM 40.6360 -73.7770 37° Northeast 20 23 60 Level FlightAware
11:36PM 40.6360 -73.7760 90° East 24 28 120 Level FlightAware
11:37PM 40.6380 -73.7750 21° North 29 33 120 Level FlightAware
11:37PM 40.6390 -73.7740 37° Northeast 27 31 120 Level FlightAware
11:38PM 40.6400 -73.7730 37° Northeast 29 33 120 Level FlightAware
11:38PM 40.6410 -73.7730 360° North 28 32 120 Level FlightAware
11:38PM 40.6420 -73.7720 37° Northeast 28 32 120 Level FlightAware
11:39PM 40.6440 -73.7700 37° Northeast 28 32 120 Level FlightAware
11:39PM 40.6450 -73.7700 360° North 27 31 180 Level FlightAware
11:40PM 40.6470 -73.7690 21° North 28 32 180 Level FlightAware
11:41PM 40.6480 -73.7680 37° Northeast 23 26 240 Level FlightAware
11:41PM 40.6490 -73.7670 37° Northeast 19 22 240 Level FlightAware
11:42PM 40.6490 -73.7660 90° East 20 23 300 Level FlightAware
11:42PM 40.6490 -73.7650 90° East 19 22 420 Level FlightAware
11:43PM 40.6450 -73.7680 210° Southwest 76 87 540 Level FlightAware
11:44PM 40.6140 -73.7910 209° Southwest 179 206 900 1,380 Climbing FlightAware
11:44PM 40.6030 -73.7990 209° Southwest 187 215 1,500 1,920 Climbing FlightAware
11:44PM 40.5840 -73.8130 209° Southwest 207 238 2,200 1,320 Climbing FlightAware
11:45PM 40.5530 -73.8330 206° Southwest 243 280 2,800 1,080 Climbing FlightAware
11:45PM 40.5390 -73.8360 189° South 261 300 3,100 1,860 Climbing FlightAware
11:46PM 40.5050 -73.8240 165° South 282 325 4,100 2,520 Climbing FlightAware
11:46PM 40.4916 -73.8098 141° Southeast 294 338 4,600 2,520 Climbing FlightAware ADS-B
11:46PM 40.4853 -73.7997 129° Southeast 300 345 4,900 2,760 Climbing FlightAware ADS-B
11:46PM 40.4815 -73.7899 117° Southeast 306 352 5,200 2,400 Climbing FlightAware ADS-B
11:46PM 40.4797 -73.7828 108° East 310 357 5,300 2,160 Climbing FlightAware ADS-B
11:46PM 40.4777 -73.7697 101° East 315 362 5,600 2,700 Climbing FlightAware ADS-B
11:46PM 40.4775 -73.7618 92° East 319 367 5,800 3,000 Climbing FlightAware ADS-B
11:46PM 40.4779 -73.7500 87° East 324 373 6,100 2,700 Climbing FlightAware ADS-B
11:47PM 40.4807 -73.7186 83° East 325 374 6,800 2,700 Climbing FlightAware ADS-B
11:47PM 40.4837 -73.6852 83° East 327 376 7,600 2,700 Climbing FlightAware ADS-B
11:47PM 40.4867 -73.6537 83° East 329 379 8,300 2,580 Climbing FlightAware ADS-B
11:47PM 40.4896 -73.6216 83° East 332 382 9,000 2,460 Climbing FlightAware ADS-B
11:48PM 40.4921 -73.5914 84° East 335 386 9,600 2,040 Climbing FlightAware ADS-B
11:48PM 40.4974 -73.5257 84° East 347 399 10,600 1,440 Climbing FlightAware ADS-B
11:49PM 40.5030 -73.4597 84° East 376 433 11,100 420 Climbing FlightAware ADS-B
11:49PM 40.5098 -73.3768 84° East 423 487 11,100  Level FlightAware ADS-B
11:49PM 40.5105 -73.3537 88° East 426 490 11,100  Level FlightAware ADS-B
11:50PM 40.5073 -73.3099 95° East 424 488 11,100 420 Level FlightAware ADS-B
11:50PM 40.5026 -73.2823 103° East 423 487 11,300 1,680 Climbing FlightAware ADS-B
11:50PM 40.4910 -73.2417 111° Southeast 420 483 11,900 2,280 Climbing FlightAware ADS-B
11:50PM 40.4732 -73.1902 114° Southeast 426 490 12,800 2,400 Climbing FlightAware ADS-B
11:51PM 40.4683 -73.1653 104° East 430 495 13,200 2,160 Climbing FlightAware ADS-B
11:51PM 40.4662 -73.1339 95° East 435 501 13,600 2,040 Climbing FlightAware ADS-B
11:51PM 40.4730 -73.0731 82° East 443 510 14,400 2,040 Climbing FlightAware ADS-B
11:51PM 40.4751 -73.0654 70° East 447 514 14,500 2,280 Climbing FlightAware ADS-B
11:51PM 40.4837 -73.0406 65° Northeast 449 517 14,900 2,220 Climbing FlightAware ADS-B
11:52PM 40.5129 -72.9673 62° Northeast 454 522 16,000 2,160 Climbing FlightAware ADS-B
11:53PM 40.5447 -72.8861 63° Northeast 459 528 17,200 1,980 Climbing FlightAware ADS-B
11:53PM 40.5747 -72.8112 62° Northeast 464 534 18,100 1,740 Climbing FlightAware ADS-B
11:54PM 40.6067 -72.7302 62° Northeast 472 543 19,000 1,560 Climbing FlightAware ADS-B
11:54PM 40.6426 -72.6372 63° Northeast 481 554 19,900 1,560 Climbing FlightAware ADS-B
11:55PM 40.6791 -72.5450 62° Northeast 482 555 20,900 1,560 Climbing FlightAware ADS-B
11:55PM 40.7122 -72.4598 63° Northeast 493 567 21,700 1,560 Climbing FlightAware ADS-B
11:56PM 40.7443 -72.3766 63° Northeast 496 571 22,600 1,560 Climbing FlightAware ADS-B
11:56PM 40.7795 -72.2841 63° Northeast 500 575 23,400 1,320 Climbing FlightAware ADS-B
11:57PM 40.8350 -72.1385 63° Northeast 508 585 24,600 1,260 Climbing FlightAware ADS-B
11:58PM 40.8714 -72.0435 63° Northeast 513 590 25,300 1,200 Climbing FlightAware ADS-B
11:58PM 40.9045 -71.9558 63° Northeast 520 598 25,900 1,020 Climbing FlightAware ADS-B
11:59PM 40.9380 -71.8700 63° Northeast 525 604 26,400 1,080 Climbing FlightAware
11:59PM 40.9518 -71.8328 64° Northeast 524 603 26,700 1,080 Climbing FlightAware ADS-B
12:00AM 41.0180 -71.6560 64° Northeast 533 613 27,800 1,200 Climbing FlightAware
12:01AM 41.0680 -71.5350 61° Northeast 531 611 28,900 960 Climbing FlightAware
12:02AM 41.1240 -71.4100 59° Northeast 531 611 29,300 1,140 Climbing FlightAware
12:02AM 41.1790 -71.2940 58° Northeast 527 606 30,500 1,440 Climbing FlightAware
12:03AM 41.2310 -71.1830 58° Northeast 529 609 31,100 300 Climbing FlightAware
12:04AM 41.2900 -71.0590 58° Northeast 535 616 31,000 -120 Descending FlightAware
12:04AM 41.3490 -70.9300 59° Northeast 534 615 31,000  Level FlightAware
12:05AM 41.4160 -70.7860 58° Northeast 534 615 31,000  Level FlightAware
12:06AM 41.4810 -70.6480 58° Northeast 535 616 31,000  Level FlightAware
12:07AM 41.5120 -70.5770 60° Northeast 535 616 31,000  Level FlightAware
12:07AM 41.5640 -70.4620 59° Northeast 535 616 31,000  Level FlightAware
12:08AM 41.6030 -70.3750 59° Northeast 535 616 31,000  Level FlightAware
12:10AM 41.7590 -70.0350 58° Northeast 536 617 31,100  Climbing FlightAware
12:11AM 41.8300 -69.8770 59° Northeast 536 617 31,100  Level FlightAware
12:12AM 41.9020 -69.7140 59° Northeast 521 600 31,100  Level FlightAware
12:13AM 41.9900 -69.5170 59° Northeast 515 593 31,100 -60 Level FlightAware
12:13AM 42.0390 -69.4060 59° Northeast 512 589 31,000  Descending FlightAware
12:14AM 42.1010 -69.2660 59° Northeast 512 589 31,100 60 Climbing FlightAware
12:15AM 42.1490 -69.1560 59° Northeast 512 589 31,100  Level FlightAware
12:16AM 42.1980 -69.0450 59° Northeast 515 593 31,100 -120 Level FlightAware
12:16AM 42.2510 -68.9200 60° Northeast 517 595 31,000  Descending FlightAware
12:17AM 42.2990 -68.8120 59° Northeast 518 596 31,100  Climbing FlightAware
12:18AM 42.3460 -68.7020 60° Northeast 522 601 31,000  Descending FlightAware
12:18AM 42.4010 -68.5720 60° Northeast 521 600 31,100 60 Climbing FlightAware
12:19AM 42.4450 -68.4710 59° Northeast 520 598 31,100  Level FlightAware
12:20AM 42.4990 -68.3440 60° Northeast 520 598 31,100  Level FlightAware
12:20AM 42.5450 -68.2340 60° Northeast 520 598 31,100  Level FlightAware
12:21AM 42.5960 -68.1160 60° Northeast 520 598 31,100  Level FlightAware
12:22AM 42.6330 -68.0270 61° Northeast 520 598 31,100  Level FlightAware
12:23AM 42.6830 -67.9090 60° Northeast 520 598 31,100  Level FlightAware
12:23AM 42.7200 -67.8220 60° Northeast 520 598 31,100  Level FlightAware
12:24AM 42.7700 -67.7040 60° Northeast 520 598 31,100  Level FlightAware
12:25AM 42.8070 -67.6170 60° Northeast 520 598 31,100  Level FlightAware
12:25AM 42.8560 -67.5010 60° Northeast 520 598 31,100  Level FlightAware
12:26AM 42.8940 -67.4120 60° Northeast 520 598 31,100  Level FlightAware
12:27AM 42.9430 -67.2960 60° Northeast 520 598 31,100  Level FlightAware
12:27AM 42.9800 -67.2090 60° Northeast 520 598 31,100  Level FlightAware
12:28AM 43.0180 -67.1190 60° Northeast 520 598 31,100  Level FlightAware
12:29AM 43.1570 -66.7540 62° Northeast 526 605 31,100 -120 Level FlightAware
12:30AM 43.2030 -66.6380 61° Northeast 526 605 31,000  Descending FlightAware
12:30AM 43.2560 -66.5030 62° Northeast 524 603 31,100 60 Climbing FlightAware
12:31AM 43.3040 -66.3830 61° Northeast 523 602 31,100  Level FlightAware
12:32AM 43.3560 -66.2500 62° Northeast 523 602 31,100  Level FlightAware
12:32AM 43.4010 -66.1350 62° Northeast 522 601 31,100 -120 Level FlightAware
12:33AM 43.4490 -66.0120 62° Northeast 522 601 31,000  Descending FlightAware
12:34AM 43.4930 -65.8990 62° Northeast 523 602 31,100 60 Climbing FlightAware
12:34AM 43.5400 -65.7780 62° Northeast 526 605 31,100  Level FlightAware
12:35AM 43.6080 -65.6010 62° Northeast 525 604 31,100  Level FlightAware
12:36AM 43.6590 -65.4700 62° Northeast 525 604 31,100  Level FlightAware
12:37AM 43.6990 -65.3640 62° Northeast 526 605 31,100  Level FlightAware
12:37AM 43.7490 -65.2330 62° Northeast 526 605 31,100 -120 Level FlightAware
12:38AM 43.7950 -65.1100 63° Northeast 527 606 31,000  Descending FlightAware
12:39AM 43.8470 -64.9760 62° Northeast 527 606 31,100 60 Climbing FlightAware
12:40AM 43.8900 -64.8590 63° Northeast 528 608 31,100  Level FlightAware
12:41AM 43.9570 -64.6810 62° Northeast 530 610 31,100  Level FlightAware
12:42AM 44.0210 -64.5060 63° Northeast 530 610 31,100  Level FlightAware
12:42AM 44.0610 -64.3970 63° Northeast 530 610 31,100  Level FlightAware
12:43AM 44.1060 -64.2760 63° Northeast 529 609 31,100  Level FlightAware
12:44AM 44.1610 -64.1240 63° Northeast 530 610 31,100  Level FlightAware
12:44AM 44.2000 -64.0180 63° Northeast 530 610 31,100  Level FlightAware
12:45AM 44.2460 -63.8930 63° Northeast 530 610 31,100  Level FlightAware
12:46AM 44.2930 -63.7620 63° Northeast 530 610 31,100 -120 Level FlightAware
12:46AM 44.3410 -63.6270 64° Northeast 530 610 31,000  Descending FlightAware
12:47AM 44.3880 -63.4950 63° Northeast 530 610 31,100 60 Climbing FlightAware
12:48AM 44.4310 -63.3760 63° Northeast 530 610 31,100 -120 Level FlightAware
12:48AM 44.4780 -63.2410 64° Northeast 530 610 31,000  Descending FlightAware
12:49AM 44.5280 -63.0990 64° Northeast 530 610 31,100  Climbing FlightAware
12:50AM 44.5790 -62.9530 64° Northeast 530 610 31,100  Level FlightAware
12:51AM 44.6330 -62.7990 64° Northeast 531 611 31,100  Level FlightAware
12:51AM 44.6680 -62.6990 64° Northeast 531 611 31,100  Level FlightAware
12:52AM 44.7120 -62.5720 64° Northeast 531 611 31,100  Level FlightAware
12:53AM 44.7450 -62.4770 64° Northeast 531 611 31,100  Level FlightAware
12:54AM 44.8000 -62.3160 64° Northeast 531 611 31,100  Level FlightAware
12:54AM 44.8330 -62.2210 64° Northeast 531 611 31,100  Level FlightAware
12:55AM 44.8690 -62.1180 64° Northeast 531 611 31,100  Level FlightAware
12:56AM 44.9130 -61.9900 64° Northeast 531 611 31,100  Level FlightAware
12:57AM 44.9470 -61.8920 64° Northeast 531 611 31,100  Level FlightAware
12:57AM 44.9910 -61.7650 64° Northeast 531 611 31,100  Level FlightAware
12:58AM 45.0240 -61.6690 64° Northeast 531 611 31,100  Level FlightAware
12:59AM 45.0680 -61.5420 64° Northeast 531 611 31,100  Level FlightAware
12:59AM 45.1000 -61.4460 65° Northeast 531 611 31,100  Level FlightAware
01:00AM 45.2400 -60.9900 66° East 534 615 31,100  Level FlightAware
01:01AM 45.2850 -60.8530 65° Northeast 534 615 31,100  Level FlightAware
01:02AM 45.3280 -60.7190 65° Northeast 533 613 31,100  Level FlightAware
01:02AM 45.3690 -60.5880 66° East 533 613 31,100  Level FlightAware
01:03AM 45.4140 -60.4480 65° Northeast 533 613 31,100 -120 Level FlightAware
01:04AM 45.4540 -60.3200 66° East 532 612 31,000  Descending FlightAware
01:05AM 45.4980 -60.1800 66° East 533 613 31,100 60 Climbing FlightAware
01:05AM 45.5420 -60.0390 66° East 532 612 31,100  Level FlightAware
01:06AM 45.5830 -59.9100 66° East 533 613 31,100  Level FlightAware
01:07AM 45.6220 -59.7850 66° East 533 613 31,100 -120 Level FlightAware
01:07AM 45.6660 -59.6400 66° East 532 612 31,000  Descending FlightAware
01:08AM 45.7080 -59.5050 66° East 533 613 31,100 60 Climbing FlightAware
01:09AM 45.7510 -59.3630 66° East 532 612 31,100  Level FlightAware
01:10AM 45.7900 -59.2330 67° East 532 612 31,100  Level FlightAware
01:10AM 45.8310 -59.1010 66° East 532 612 31,100 -120 Level FlightAware
01:11AM 45.8700 -58.9680 67° East 531 611 31,000  Descending FlightAware
01:12AM 45.9130 -58.8260 66° East 530 610 31,100  Climbing FlightAware
01:12AM 45.9500 -58.7000 67° East 530 610 31,000 -120 Descending FlightAware
01:13AM 45.9930 -58.5570 67° East 529 609 31,000  Level FlightAware
01:14AM 46.0330 -58.4180 67° East 529 609 31,000 60 Level FlightAware
01:14AM 46.0710 -58.2880 67° East 531 611 31,100  Climbing FlightAware
01:15AM 46.1100 -58.1540 67° East 530 610 31,000 -120 Descending FlightAware
01:16AM 46.1490 -58.0200 67° East 530 610 31,000  Level FlightAware
01:16AM 46.1790 -57.9210 66° East 530 610 31,000  Level FlightAware
01:17AM 46.2180 -57.7880 67° East 530 610 31,000  Level FlightAware
01:18AM 46.2470 -57.6880 67° East 530 610 31,000  Level FlightAware
01:19AM 46.2860 -57.5550 67° East 530 610 31,000 60 Level FlightAware
01:19AM 46.3430 -57.3340 69° East 529 609 31,100  Climbing FlightAware
01:20AM 46.4060 -57.0990 69° East 531 611 31,100 -60 Level FlightAware
01:21AM 46.4390 -56.9740 69° East 531 611 31,000  Descending FlightAware
01:22AM 46.4780 -56.8200 70° East 532 612 31,100 120 Climbing FlightAware
01:23AM 46.5180 -56.6660 69° East 535 616 31,200 540 Climbing FlightAware
01:23AM 46.5530 -56.5310 69° East 536 617 31,900 1,080 Climbing FlightAware
01:24AM 46.5910 -56.3830 69° East 536 617 32,800 840 Climbing FlightAware
01:25AM 46.6230 -56.2570 70° East 538 619 33,100 180 Climbing FlightAware
01:25AM 46.6620 -56.1020 70° East 535 616 33,100  Level FlightAware
01:26AM 46.6990 -55.9600 69° East 534 615 33,100  Level FlightAware
01:27AM 46.7340 -55.8180 70° East 534 615 33,100  Level FlightAware
01:27AM 46.7680 -55.6790 70° East 535 616 33,100  Level FlightAware
01:28AM 46.8000 -55.5460 71° East 536 617 33,100  Level FlightAware
01:29AM 46.8380 -55.3930 70° East 537 618 33,100  Level FlightAware
01:30AM 46.8740 -55.2430 71° East 537 618 33,100  Level FlightAware
01:30AM 46.9030 -55.1270 70° East 538 619 33,100  Level FlightAware
01:31AM 46.9400 -54.9720 71° East 538 619 33,100  Level FlightAware
01:32AM 46.9720 -54.8380 71° East 539 620 33,100  Level FlightAware
01:32AM 47.0080 -54.6860 71° East 539 620 33,100  Level FlightAware
01:33AM 47.0410 -54.5480 71° East 539 620 33,100  Level FlightAware
01:34AM 47.0750 -54.4030 71° East 540 621 33,100  Level FlightAware
01:34AM 47.1070 -54.2640 71° East 542 624 33,100  Level FlightAware
01:35AM 47.1560 -54.0520 71° East 543 625 33,100  Level FlightAware
01:36AM 47.1890 -53.9090 71° East 542 624 33,100  Level FlightAware
01:37AM 47.2210 -53.7650 72° East 544 626 33,100  Level FlightAware
01:37AM 47.2570 -53.6070 71° East 544 626 33,100  Level FlightAware
01:38AM 47.2900 -53.4590 72° East 545 627 33,100  Level FlightAware
01:39AM 47.3210 -53.3220 71° East 546 628 33,100  Level FlightAware
01:39AM 47.3520 -53.1800 72° East 547 629 33,100  Level FlightAware
01:40AM 47.3890 -53.0130 72° East 549 632 33,100  Level FlightAware
01:41AM 47.4180 -52.8780 72° East 550 633 33,100  Level FlightAware
01:42AM 47.4510 -52.7280 72° East 550 633 33,100  Level FlightAware
01:42AM 47.4850 -52.5670 73° East 550 633 33,100  Level FlightAware
01:43AM 47.5150 -52.4270 72° East 550 633 33,100  Level FlightAware
01:44AM 47.5470 -52.2760 73° East 550 633 33,100  Level FlightAware
01:44AM 47.5790 -52.1250 73° East 551 634 33,100  Level FlightAware
01:45AM 47.6100 -51.9740 73° East 552 635 33,100  Level FlightAware
01:46AM 47.6440 -51.8150 72° East 552 635 33,100  Level FlightAware
01:47AM 47.6740 -51.6660 73° East 553 636 33,100  Level FlightAware
01:47AM 47.7060 -51.5100 73° East 553 636 33,100 -60 Level FlightAware
01:48AM 47.7450 -51.3160 73° East 555 639 33,000 -120 Descending FlightAware
01:49AM 47.7680 -51.2040 73° East 555 639 33,000  Level FlightAware
01:50AM 47.8020 -51.0400 73° East 555 639 33,000  Level FlightAware
01:50AM 47.8280 -50.9090 73° East 555 639 33,000  Level FlightAware
01:51AM 47.8590 -50.7600 73° East 555 639 33,000  Level FlightAware
01:52AM 47.8820 -50.6480 73° East 555 639 33,000  Level FlightAware
01:53AM 47.9110 -50.5050 73° East 555 639 33,000  Level FlightAware
01:53AM 47.9420 -50.3550 73° East 555 639 33,000  Level FlightAware
01:54AM 47.9650 -50.2430 73° East 555 639 33,000  Level FlightAware
01:55AM 48.0040 -50.0530 73° East 555 639 33,000  Level FlightAware
01:56AM 48.0270 -49.9400 73° East 555 639 33,000  Level FlightAware
01:56AM 48.0570 -49.7900 73° East 555 639 33,000  Level FlightAware
01:57AM 48.0800 -49.6780 73° East 555 639 33,000  Level FlightAware
01:57AM 48.0833 -49.2167 73° East 560 644 33,000  Level Gander Center
01:58AM 48.1333 -48.9833 72° East 560 644 33,000  Level Gander Center
01:59AM 48.1500 -48.8500 79° East 560 644 33,000  Level Gander Center
02:00AM 48.1667 -48.6000 84° East 570 656 33,000  Level Gander Center
02:01AM 48.2000 -48.3833 77° East 570 656 33,000  Level Gander Center
02:02AM 48.2333 -48.1167 79° East 570 656 33,000 60 Level Gander Center
02:02AM 48.2333 -48.0667 90° East 570 656 33,100  Climbing Gander Center
02:03AM 48.2667 -47.8333 78° East 570 656 33,000 -60 Descending Gander Center
02:04AM 48.3000 -47.6667 73° East 580 667 33,000  Level Gander Center
02:04AM 48.3000 -47.6000 90° East 570 656 33,000  Level Gander Center
02:05AM 48.3167 -47.3667 84° East 570 656 33,000  Level Gander Center
02:08AM 48.3633 -47.0380 78° East  Level FlightAware Approximate
02:15AM 48.5500 -45.5263 80° East  Level FlightAware Approximate
02:16AM 48.5729 -45.3089 81° East  Level FlightAware Approximate
02:17AM 48.5955 -45.0913 81° East  Level FlightAware Approximate
02:18AM 48.6176 -44.8735 81° East  Level FlightAware Approximate
02:19AM 48.6393 -44.6555 81° East  Level FlightAware Approximate
02:20AM 48.6606 -44.4374 82° East  Level FlightAware Approximate
02:21AM 48.6815 -44.2190 82° East  Level FlightAware Approximate
02:22AM 48.7019 -44.0005 82° East  Level FlightAware Approximate
02:23AM 48.7219 -43.7817 82° East  Level FlightAware Approximate
02:24AM 48.7415 -43.5629 82° East  Level FlightAware Approximate
02:25AM 48.7606 -43.3438 82° East  Level FlightAware Approximate
02:26AM 48.7794 -43.1246 83° East  Level FlightAware Approximate
02:27AM 48.7977 -42.9052 83° East  Level FlightAware Approximate
02:28AM 48.8156 -42.6856 83° East  Level FlightAware Approximate
02:29AM 48.8331 -42.4659 83° East  Level FlightAware Approximate
02:30AM 48.8501 -42.2461 83° East  Level FlightAware Approximate
02:31AM 48.8668 -42.0261 83° East  Level FlightAware Approximate
02:32AM 48.8830 -41.8060 84° East  Level FlightAware Approximate
02:33AM 48.8988 -41.5857 84° East  Level FlightAware Approximate
02:34AM 48.9142 -41.3652 84° East  Level FlightAware Approximate
02:35AM 48.9292 -41.1447 84° East  Level FlightAware Approximate
02:36AM 48.9437 -40.9240 84° East  Level FlightAware Approximate
02:37AM 48.9579 -40.7032 84° East  Level FlightAware Approximate
02:38AM 48.9716 -40.4822 85° East  Level FlightAware Approximate
02:39AM 48.9849 -40.2612 85° East  Level FlightAware Approximate
02:40AM 48.9977 -40.0400 85° East  Level FlightAware Approximate
02:41AM 49.0258 -39.8223 77° East  Level FlightAware Approximate
02:42AM 49.0569 -39.6052 78° East  Level FlightAware Approximate
02:43AM 49.0875 -39.3878 78° East  Level FlightAware Approximate
02:44AM 49.1178 -39.1701 78° East  Level FlightAware Approximate
02:45AM 49.1477 -38.9522 78° East  Level FlightAware Approximate
02:46AM 49.1771 -38.7340 78° East  Level FlightAware Approximate
02:47AM 49.2062 -38.5155 78° East  Level FlightAware Approximate
02:48AM 49.2348 -38.2968 79° East  Level FlightAware Approximate
02:49AM 49.2630 -38.0778 79° East  Level FlightAware Approximate
02:50AM 49.2908 -37.8586 79° East  Level FlightAware Approximate
02:51AM 49.3182 -37.6391 79° East  Level FlightAware Approximate
02:52AM 49.3452 -37.4194 79° East  Level FlightAware Approximate
02:53AM 49.3717 -37.1995 79° East  Level FlightAware Approximate
02:54AM 49.3979 -36.9793 80° East  Level FlightAware Approximate
02:55AM 49.4236 -36.7589 80° East  Level FlightAware Approximate
02:56AM 49.4489 -36.5382 80° East  Level FlightAware Approximate
02:57AM 49.4738 -36.3174 80° East  Level FlightAware Approximate
02:58AM 49.4982 -36.0963 80° East  Level FlightAware Approximate
02:59AM 49.5223 -35.8750 80° East  Level FlightAware Approximate
03:00AM 49.5459 -35.6534 81° East  Level FlightAware Approximate
03:01AM 49.5691 -35.4317 81° East  Level FlightAware Approximate
03:02AM 49.5919 -35.2097 81° East  Level FlightAware Approximate
03:03AM 49.6142 -34.9876 81° East  Level FlightAware Approximate
03:04AM 49.6361 -34.7652 81° East  Level FlightAware Approximate
03:05AM 49.6576 -34.5427 81° East  Level FlightAware Approximate
03:06AM 49.6787 -34.3199 82° East  Level FlightAware Approximate
03:07AM 49.6993 -34.0970 82° East  Level FlightAware Approximate
03:08AM 49.7195 -33.8739 82° East  Level FlightAware Approximate
03:09AM 49.7393 -33.6506 82° East  Level FlightAware Approximate
03:10AM 49.7586 -33.4271 82° East  Level FlightAware Approximate
03:11AM 49.7776 -33.2034 82° East  Level FlightAware Approximate
03:12AM 49.7961 -32.9795 83° East  Level FlightAware Approximate
03:13AM 49.8141 -32.7555 83° East  Level FlightAware Approximate
03:14AM 49.8317 -32.5314 83° East  Level FlightAware Approximate
03:15AM 49.8489 -32.3070 83° East  Level FlightAware Approximate
03:16AM 49.8657 -32.0825 83° East  Level FlightAware Approximate
03:17AM 49.8820 -31.8579 83° East  Level FlightAware Approximate
03:18AM 49.8979 -31.6331 84° East  Level FlightAware Approximate
03:19AM 49.9133 -31.4081 84° East  Level FlightAware Approximate
03:20AM 49.9283 -31.1831 84° East  Level FlightAware Approximate
03:21AM 49.9429 -30.9578 84° East  Level FlightAware Approximate
03:22AM 49.9571 -30.7325 84° East  Level FlightAware Approximate
03:23AM 49.9708 -30.5070 85° East  Level FlightAware Approximate
03:24AM 49.9835 -30.2905 85° East  Level FlightAware Approximate
03:25AM 49.9959 -30.0739 85° East  Level FlightAware Approximate
03:26AM 50.0053 -29.8568 87° East  Level FlightAware Approximate
03:27AM 50.0129 -29.6396 87° East  Level FlightAware Approximate
03:28AM 50.0202 -29.4223 87° East  Level FlightAware Approximate
03:29AM 50.0270 -29.2050 87° East  Level FlightAware Approximate
03:30AM 50.0335 -28.9876 87° East  Level FlightAware Approximate
03:31AM 50.0395 -28.7701 87° East  Level FlightAware Approximate
03:32AM 50.0452 -28.5525 88° East  Level FlightAware Approximate
03:33AM 50.0504 -28.3350 88° East  Level FlightAware Approximate
03:34AM 50.0552 -28.1173 88° East  Level FlightAware Approximate
03:35AM 50.0596 -27.8997 88° East  Level FlightAware Approximate
03:36AM 50.0636 -27.6820 88° East  Level FlightAware Approximate
03:37AM 50.0675 -27.4643 88° East  Level FlightAware Approximate
03:38AM 50.0725 -27.2466 88° East  Level FlightAware Approximate
03:39AM 50.0771 -27.0288 88° East  Level FlightAware Approximate
03:40AM 50.0812 -26.8111 88° East  Level FlightAware Approximate
03:41AM 50.0850 -26.5932 88° East  Level FlightAware Approximate
03:42AM 50.0883 -26.3754 89° East  Level FlightAware Approximate
03:43AM 50.0913 -26.1575 89° East  Level FlightAware Approximate
03:44AM 50.0938 -25.9396 89° East  Level FlightAware Approximate
03:45AM 50.0959 -25.7217 89° East  Level FlightAware Approximate
03:46AM 50.0976 -25.5038 89° East  Level FlightAware Approximate
03:47AM 50.0989 -25.2858 89° East  Level FlightAware Approximate
03:48AM 50.0998 -25.0679 90° East  Level FlightAware Approximate
03:49AM 50.1001 -24.8499 90° East  Level FlightAware Approximate
03:50AM 50.1000 -24.6319 90° East  Level FlightAware Approximate
03:51AM 50.0994 -24.4140 90° East  Level FlightAware Approximate
03:52AM 50.0984 -24.1960 90° East  Level FlightAware Approximate
03:53AM 50.0970 -23.9781 90° East  Level FlightAware Approximate
03:54AM 50.0953 -23.7601 91° East  Level FlightAware Approximate
03:55AM 50.0931 -23.5422 91° East  Level FlightAware Approximate
03:56AM 50.0905 -23.3243 91° East  Level FlightAware Approximate
03:57AM 50.0874 -23.1065 91° East  Level FlightAware Approximate
03:58AM 50.0840 -22.8886 91° East  Level FlightAware Approximate
03:59AM 50.0802 -22.6708 91° East  Level FlightAware Approximate
04:00AM 50.0760 -22.4531 92° East  Level FlightAware Approximate
04:01AM 50.0713 -22.2353 92° East  Level FlightAware Approximate
04:02AM 50.0663 -22.0176 92° East  Level FlightAware Approximate
04:03AM 50.0608 -21.8000 92° East  Level FlightAware Approximate
04:04AM 50.0549 -21.5824 92° East  Level FlightAware Approximate
04:05AM 50.0487 -21.3649 92° East  Level FlightAware Approximate
04:06AM 50.0420 -21.1474 93° East  Level FlightAware Approximate
04:07AM 50.0349 -20.9300 93° East  Level FlightAware Approximate
04:08AM 50.0274 -20.7127 93° East  Level FlightAware Approximate
04:09AM 50.0195 -20.4954 93° East  Level FlightAware Approximate
04:10AM 50.0112 -20.2782 93° East  Level FlightAware Approximate
04:11AM 50.0025 -20.0611 93° East  Level FlightAware Approximate
04:12AM 49.9951 -19.8439 93° East  Level FlightAware Approximate
04:13AM 49.9880 -19.6267 93° East  Level FlightAware Approximate
04:14AM 49.9805 -19.4096 93° East  Level FlightAware Approximate
04:15AM 49.9726 -19.1925 93° East  Level FlightAware Approximate
04:16AM 49.9642 -18.9755 93° East  Level FlightAware Approximate
04:17AM 49.9555 -18.7586 94° East  Level FlightAware Approximate
04:18AM 49.9464 -18.5418 94° East  Level FlightAware Approximate
04:19AM 49.9368 -18.3251 94° East  Level FlightAware Approximate
04:20AM 49.9269 -18.1084 94° East  Level FlightAware Approximate
04:21AM 49.9165 -17.8918 94° East  Level FlightAware Approximate
04:22AM 49.9058 -17.6754 94° East  Level FlightAware Approximate
04:23AM 49.8946 -17.4590 94° East  Level FlightAware Approximate
04:24AM 49.8830 -17.2427 95° East  Level FlightAware Approximate
04:25AM 49.8711 -17.0266 95° East  Level FlightAware Approximate
04:26AM 49.8587 -16.8105 95° East  Level FlightAware Approximate
04:27AM 49.8459 -16.5946 95° East  Level FlightAware Approximate
04:28AM 49.8328 -16.3788 95° East  Level FlightAware Approximate
04:29AM 49.8192 -16.1630 95° East  Level FlightAware Approximate
04:30AM 49.8052 -15.9475 96° East  Level FlightAware Approximate
04:31AM 49.7909 -15.7320 96° East  Level FlightAware Approximate
04:32AM 49.7761 -15.5170 96° East  Level FlightAware Approximate
04:33AM 49.7610 -15.3022 96° East  Level FlightAware Approximate
04:34AM 49.7454 -15.0875 96° East  Level FlightAware Approximate
04:35AM 49.7295 -14.8730 96° East  Level FlightAware Approximate
04:36AM 49.7132 -14.6586 97° East  Level FlightAware Approximate
04:37AM 49.6964 -14.4443 97° East  Level FlightAware Approximate
04:38AM 49.6793 -14.2302 97° East  Level FlightAware Approximate
04:39AM 49.6618 -14.0162 97° East  Level FlightAware Approximate
04:40AM 49.6439 -13.8024 97° East  Level FlightAware Approximate
04:41AM 49.6256 -13.5887 97° East  Level FlightAware Approximate
04:42AM 49.6069 -13.3752 98° East  Level FlightAware Approximate
04:43AM 49.5878 -13.1619 98° East  Level FlightAware Approximate
04:44AM 49.5684 -12.9488 98° East  Level FlightAware Approximate
04:45AM 49.5485 -12.7358 98° East  Level FlightAware Approximate
04:46AM 49.5282 -12.5230 98° East  Level FlightAware Approximate
04:47AM 49.5076 -12.3103 98° East  Level FlightAware Approximate
04:48AM 49.4865 -12.0979 99° East  Level FlightAware Approximate
04:49AM 49.4651 -11.8856 99° East  Level FlightAware Approximate
04:50AM 49.4433 -11.6735 99° East  Level FlightAware Approximate
04:51AM 49.4211 -11.4616 99° East  Level FlightAware Approximate
04:52AM 49.3985 -11.2500 99° East  Level FlightAware Approximate
04:53AM 49.3755 -11.0385 99° East  Level FlightAware Approximate
04:54AM 49.3521 -10.8272 100° East  Level FlightAware Approximate
04:55AM 49.3284 -10.6160 100° East  Level FlightAware Approximate
04:56AM 49.3043 -10.4052 100° East  Level FlightAware Approximate
04:57AM 49.2798 -10.1945 100° East  Level FlightAware Approximate
04:58AM 49.2549 -9.9840 100° East  Level FlightAware Approximate
04:59AM 49.2296 -9.7738 100° East  Level FlightAware Approximate
05:00AM 49.2039 -9.5637 101° East  Level FlightAware Approximate
05:00AM 49.2091 -8.9868 101° East 492 566 35,000  Level FlightAware UK
05:00AM 49.2030 -8.9460 101° East 481 554 35,100  Climbing FlightAware
05:00AM 49.1934 -8.8877 101° East 492 566 35,000 -180 Descending FlightAware UK
05:00AM 49.1840 -8.8285 104° East 490 564 35,000 300 Level FlightAware UK
05:00AM 49.1840 -8.8270 104° East 480 552 35,100  Climbing FlightAware
05:01AM 49.1743 -8.7691 104° East 490 564 35,000 -180 Descending FlightAware UK
05:01AM 49.1647 -8.7100 104° East 490 564 35,000 180 Level FlightAware UK
05:01AM 49.1610 -8.6860 104° East 479 551 35,100  Climbing FlightAware
05:01AM 49.1520 -8.6312 104° East 490 564 35,000 -240 Descending FlightAware UK
05:02AM 49.1423 -8.5722 104° East 488 562 35,000 180 Level FlightAware UK
05:02AM 49.1390 -8.5480 104° East 479 551 35,100  Climbing FlightAware
05:02AM 49.1293 -8.4935 104° East 488 562 35,000  Descending FlightAware UK
05:02AM 49.1210 -8.4400 104° East 479 551 35,100  Climbing FlightAware
05:03AM 49.1098 -8.3757 104° East 486 559 35,000 -180 Descending FlightAware UK
05:03AM 49.1001 -8.3168 104° East 484 557 35,000 300 Level FlightAware UK
05:03AM 49.1000 -8.3160 104° East 480 552 35,100  Climbing FlightAware
05:03AM 49.0903 -8.2578 104° East 486 559 35,000 -180 Descending FlightAware UK
05:04AM 49.0805 -8.1987 104° East 484 557 35,000 180 Level FlightAware UK
05:04AM 49.0780 -8.1810 104° East 483 556 35,100  Climbing FlightAware
05:04AM 49.0675 -8.1198 104° East 484 557 35,000 -180 Descending FlightAware UK
05:04AM 49.0575 -8.0605 104° East 486 559 35,000 180 Level FlightAware UK
05:05AM 49.0530 -8.0320 104° East 487 560 35,100  Climbing FlightAware
05:05AM 49.0404 -7.9605 104° East 486 559 35,000  Descending FlightAware UK
05:05AM 49.0330 -7.9190 105° East 489 563 35,100  Climbing FlightAware
05:05AM 49.0302 -7.9007 105° East 488 562 35,000 -420 Descending FlightAware UK
05:05AM 49.0234 -7.8608 105° East 488 562 35,000  Level FlightAware UK
05:06AM 49.0131 -7.8007 105° East 490 564 35,000 180 Level FlightAware UK
05:06AM 49.0060 -7.7620 105° East 492 566 35,100  Climbing FlightAware
05:06AM 48.9953 -7.7005 105° East 490 564 35,000 -180 Descending FlightAware UK
05:06AM 48.9811 -7.6404 110° East 490 564 35,000 180 Level FlightAware UK
05:07AM 48.9750 -7.6140 110° East 495 570 35,100  Climbing FlightAware
05:07AM 48.9570 -7.5420 110° East 492 566 35,000 -180 Descending FlightAware UK
05:07AM 48.9418 -7.4835 112° Southeast 492 566 35,000 240 Level FlightAware UK
05:07AM 48.9420 -7.4830 112° Southeast 497 572 35,100  Climbing FlightAware
05:08AM 48.9210 -7.4059 112° Southeast 492 566 35,000 -180 Descending FlightAware UK
05:08AM 48.9052 -7.3478 112° Southeast 492 566 35,000 300 Level FlightAware UK
05:08AM 48.9070 -7.3540 112° Southeast 496 571 35,100  Climbing FlightAware
05:08AM 48.8893 -7.2898 112° Southeast 492 566 35,000 -180 Descending FlightAware UK
05:09AM 48.8678 -7.2126 113° Southeast 490 564 35,000 240 Level FlightAware UK
05:09AM 48.8680 -7.2130 113° Southeast 497 572 35,100  Climbing FlightAware
05:09AM 48.8519 -7.1548 113° Southeast 490 564 35,000 -180 Descending FlightAware UK
05:09AM 48.8359 -7.0970 113° Southeast 488 562 35,000 240 Level FlightAware UK
05:09AM 48.8330 -7.0870 113° Southeast 496 571 35,100  Climbing FlightAware
05:10AM 48.8145 -7.0201 113° Southeast 488 562 35,000 -180 Descending FlightAware UK
05:10AM 48.7985 -6.9624 113° Southeast 486 559 35,000  Level FlightAware UK
05:10AM 48.7825 -6.9046 113° Southeast 488 562 35,000 240 Level FlightAware UK
05:10AM 48.7790 -6.8910 113° Southeast 498 573 35,100  Climbing FlightAware
05:11AM 48.7611 -6.8269 113° Southeast 488 562 35,000 -180 Descending FlightAware UK
05:11AM 48.7451 -6.7690 113° Southeast 488 562 35,000 300 Level FlightAware UK
05:11AM 48.7440 -6.7660 113° Southeast 498 573 35,100  Climbing FlightAware
05:11AM 48.7293 -6.7111 113° Southeast 486 559 35,000 -180 Descending FlightAware UK
05:12AM 48.7134 -6.6533 113° Southeast 488 562 35,000  Level FlightAware UK
05:12AM 48.6972 -6.5954 113° Southeast 486 559 35,000 240 Level FlightAware UK
05:12AM 48.6920 -6.5790 113° Southeast 500 575 35,100  Climbing FlightAware
05:12AM 48.6755 -6.5182 113° Southeast 488 562 35,000 -180 Descending FlightAware UK
05:13AM 48.6593 -6.4602 113° Southeast 488 562 35,000 240 Level FlightAware UK
05:13AM 48.6550 -6.4440 113° Southeast 501 577 35,100  Climbing FlightAware
05:13AM 48.6377 -6.3829 113° Southeast 488 562 35,000 -180 Descending FlightAware UK
05:13AM 48.6213 -6.3248 113° Southeast 490 564 35,000 240 Level FlightAware UK
05:13AM 48.6170 -6.3120 113° Southeast 501 577 35,100  Climbing FlightAware
05:14AM 48.5995 -6.2474 113° Southeast 490 564 35,000 -180 Descending FlightAware UK
05:14AM 48.5832 -6.1894 113° Southeast 490 564 35,000 240 Level FlightAware UK
05:14AM 48.5780 -6.1700 113° Southeast 502 578 35,100  Climbing FlightAware
05:14AM 48.5521 -6.0952 113° Southeast 490 564 35,000  Descending FlightAware UK
05:15AM 48.5440 -6.0740 119° Southeast 503 579 35,100  Climbing FlightAware
05:15AM 48.5318 -6.0399 119° Southeast 492 566 35,000 -360 Descending FlightAware UK
05:15AM 48.5184 -6.0028 119° Southeast 490 564 35,000  Level FlightAware UK
05:15AM 48.4913 -5.9291 119° Southeast 488 562 35,000 180 Level FlightAware UK
05:15AM 48.5020 -5.9570 119° Southeast 503 579 35,100  Climbing FlightAware
05:16AM 48.4646 -5.8553 119° Southeast 488 562 35,000 -180 Descending FlightAware UK
05:16AM 48.4446 -5.7993 118° Southeast 488 562 35,000 180 Level FlightAware UK
05:16AM 48.4350 -5.7720 118° Southeast 503 579 35,100  Climbing FlightAware
05:16AM 48.4183 -5.7251 118° Southeast 488 562 35,000 -240 Descending FlightAware UK
05:17AM 48.3987 -5.6697 118° Southeast 488 562 35,000 240 Level FlightAware UK
05:17AM 48.3940 -5.6550 118° Southeast 503 579 35,100  Climbing FlightAware
05:17AM 48.3725 -5.5956 118° Southeast 486 559 35,000 -180 Descending FlightAware UK
05:17AM 48.3530 -5.5401 118° Southeast 488 562 35,000 240 Level FlightAware UK
05:18AM 48.3450 -5.5190 118° Southeast 504 580 35,100  Climbing FlightAware
05:18AM 48.3202 -5.4477 118° Southeast 488 562 35,000  Descending FlightAware UK
05:18AM 48.3020 -5.3960 118° Southeast 503 579 35,100  Climbing FlightAware
05:19AM 48.2742 -5.3183 118° Southeast 488 562 35,000 -180 Descending FlightAware UK
05:19AM 48.2544 -5.2629 118° Southeast 490 564 35,000 300 Level FlightAware UK
05:19AM 48.2530 -5.2610 118° Southeast 503 579 35,100  Climbing FlightAware
05:19AM 48.2348 -5.2076 118° Southeast 490 564 35,000 -180 Descending FlightAware UK
05:20AM 48.2152 -5.1524 118° Southeast 490 564 35,000 300 Level FlightAware UK
05:20AM 48.2160 -5.1560 118° Southeast 502 578 35,100 120 Climbing FlightAware
05:20AM 48.1640 -5.0090 118° Southeast 501 577 35,100  Level FlightAware
05:21AM 48.1190 -4.8840 118° Southeast 501 577 35,100  Level FlightAware
05:22AM 48.0680 -4.7400 118° Southeast 498 573 35,100  Level FlightAware
05:22AM 48.0280 -4.6250 117° Southeast 497 572 35,100  Level FlightAware
05:23AM 47.9790 -4.4890 118° Southeast 495 570 35,100  Level FlightAware
05:24AM 47.9370 -4.3710 118° Southeast 495 570 35,100  Level FlightAware
05:25AM 47.8900 -4.2360 117° Southeast 494 568 35,100 -60 Level FlightAware
05:26AM 47.8270 -4.0730 120° Southeast 493 567 35,000  Descending FlightAware
05:26AM 47.7780 -3.9470 120° Southeast 493 567 35,100 60 Climbing FlightAware
05:27AM 47.7330 -3.8330 120° Southeast 493 567 35,100 -120 Level FlightAware
05:28AM 47.6820 -3.7010 120° Southeast 493 567 35,000  Descending FlightAware
05:28AM 47.6390 -3.5860 119° Southeast 492 566 35,100 60 Climbing FlightAware
05:29AM 47.5900 -3.4560 119° Southeast 493 567 35,100  Level FlightAware
05:30AM 47.5450 -3.3360 119° Southeast 492 566 35,100  Level FlightAware
05:30AM 47.5010 -3.2190 119° Southeast 492 566 35,100  Level FlightAware
05:31AM 47.4490 -3.0850 120° Southeast 491 565 35,100  Level FlightAware
05:32AM 47.4050 -2.9710 120° Southeast 490 564 35,100  Level FlightAware
05:32AM 47.3590 -2.8520 120° Southeast 490 564 35,100  Level FlightAware
05:33AM 47.3090 -2.7240 120° Southeast 489 563 35,100  Level FlightAware
05:34AM 47.2600 -2.5970 120° Southeast 488 562 35,100  Level FlightAware
05:35AM 47.2150 -2.4820 120° Southeast 487 560 35,100  Level FlightAware
05:35AM 47.1830 -2.4020 120° Southeast 487 560 35,100  Level FlightAware
05:36AM 47.1360 -2.2820 120° Southeast 487 560 35,100  Level FlightAware
05:36AM 47.0870 -2.1570 120° Southeast 486 559 35,100 -120 Level FlightAware
05:37AM 47.0430 -2.0490 121° Southeast 486 559 35,000  Descending FlightAware
05:38AM 46.9920 -1.9210 120° Southeast 486 559 35,100 60 Climbing FlightAware
05:38AM 46.9550 -1.8270 120° Southeast 486 559 35,100 -120 Level FlightAware
05:39AM 46.9180 -1.7360 121° Southeast 487 560 35,000  Descending FlightAware
05:40AM 46.8720 -1.6230 121° Southeast 489 563 35,100 60 Climbing FlightAware
05:40AM 46.8240 -1.5060 121° Southeast 489 563 35,100  Level FlightAware
05:41AM 46.7770 -1.3900 121° Southeast 489 563 35,100  Level FlightAware
05:42AM 46.7250 -1.2630 121° Southeast 490 564 35,100 -120 Level FlightAware
05:42AM 46.6780 -1.1490 121° Southeast 490 564 35,000  Descending FlightAware
05:43AM 46.6300 -1.0340 121° Southeast 490 564 35,100  Climbing FlightAware
05:44AM 46.5820 -0.9150 120° Southeast 490 564 35,000 -120 Descending FlightAware
05:45AM 46.5350 -0.7780 116° Southeast 488 562 35,000  Level FlightAware
05:45AM 46.5010 -0.6720 115° Southeast 488 562 35,000  Level FlightAware
05:46AM 46.4620 -0.5500 115° Southeast 488 562 35,000  Level FlightAware
05:47AM 46.4050 -0.2720 106° East 486 559 35,100  Climbing FlightAware
05:48AM 46.3670 -0.1170 110° East 486 559 35,000  Descending FlightAware
05:49AM 46.3280 0.0180 113° Southeast 486 559 35,100  Climbing FlightAware
05:50AM 46.2650 0.2550 111° Southeast 489 563 35,100  Level FlightAware
05:51AM 46.2310 0.3800 111° Southeast 489 563 35,100  Level FlightAware
05:52AM 46.1850 0.5530 111° Southeast 487 560 35,100  Level FlightAware
05:53AM 46.1600 0.6460 111° Southeast 487 560 35,100  Level FlightAware
05:53AM 46.1270 0.7720 111° Southeast 487 560 35,100  Level FlightAware
05:54AM 46.1020 0.8650 111° Southeast 487 560 35,100  Level FlightAware
05:55AM 46.0600 1.0220 111° Southeast 487 560 35,100  Level FlightAware
05:56AM 46.0350 1.1150 111° Southeast 487 560 35,100  Level FlightAware
05:56AM 46.0020 1.2410 111° Southeast 487 560 35,100  Level FlightAware
05:57AM 45.9770 1.3340 111° Southeast 487 560 35,100  Level FlightAware
05:58AM 45.9440 1.4570 111° Southeast 487 560 35,100  Level FlightAware
05:59AM 45.8410 1.7840 114° Southeast 486 559 35,100 -120 Level FlightAware
05:59AM 45.8010 1.9030 116° Southeast 486 559 35,000 -120 Descending FlightAware
06:00AM 45.7640 2.0120 116° Southeast 483 556 35,000 60 Level FlightAware
06:01AM 45.7190 2.1470 115° Southeast 482 555 35,100 60 Climbing FlightAware
06:02AM 45.6780 2.2710 115° Southeast 479 551 35,100 -120 Level FlightAware
06:02AM 45.6370 2.3940 115° Southeast 478 550 35,000  Descending FlightAware
06:03AM 45.6030 2.4930 116° Southeast 478 550 35,100 60 Climbing FlightAware
06:04AM 45.5580 2.6270 116° Southeast 479 551 35,100  Level FlightAware
06:04AM 45.5260 2.7210 116° Southeast 478 550 35,100  Level FlightAware
06:05AM 45.4770 2.8710 115° Southeast 478 550 35,100  Level FlightAware
06:06AM 45.4480 2.9610 115° Southeast 478 550 35,100  Level FlightAware
06:07AM 45.4100 3.0780 115° Southeast 478 550 35,100  Level FlightAware
06:07AM 45.3810 3.1650 115° Southeast 478 550 35,100  Level FlightAware
06:08AM 45.3070 3.3570 119° Southeast 35,000  Descending FlightAware
06:09AM 45.2690 3.4690 116° Southeast 474 545 35,100  Climbing FlightAware
06:09AM 45.2200 3.6080 117° Southeast 473 544 35,000 -120 Descending FlightAware
06:10AM 45.1880 3.6990 116° Southeast 474 545 35,000  Level FlightAware
06:11AM 45.1440 3.8220 117° Southeast 476 548 35,000 60 Level FlightAware
06:12AM 45.0930 3.9680 116° Southeast 477 549 35,100 60 Climbing FlightAware
06:12AM 45.0500 4.0870 117° Southeast 475 547 35,100  Level FlightAware
06:13AM 45.0140 4.1880 117° Southeast 477 549 35,100  Level FlightAware
06:14AM 44.9630 4.3300 117° Southeast 475 547 35,100  Level FlightAware
06:14AM 44.9220 4.4410 118° Southeast 478 550 35,100  Level FlightAware
06:15AM 44.8890 4.5330 117° Southeast 479 551 35,100 -120 Level FlightAware
06:16AM 44.8370 4.6750 117° Southeast 477 549 35,000  Descending FlightAware
06:17AM 44.7920 4.7970 117° Southeast 478 550 35,100 60 Climbing FlightAware
06:17AM 44.7500 4.9140 117° Southeast 478 550 35,100  Level FlightAware
06:18AM 44.7100 5.0190 118° Southeast 478 550 35,100  Level FlightAware
06:19AM 44.6590 5.1370 121° Southeast 483 556 35,100  Level FlightAware
06:19AM 44.6020 5.2410 128° Southeast 484 557 35,100  Level FlightAware
06:20AM 44.5460 5.3510 126° Southeast 479 551 35,100 -120 Level FlightAware
06:21AM 44.4920 5.4590 125° Southeast 485 558 35,000  Descending FlightAware
06:21AM 44.4350 5.5720 125° Southeast 481 554 35,100  Climbing FlightAware
06:22AM 44.3830 5.6750 125° Southeast 482 555 35,000  Descending FlightAware
06:23AM 44.3300 5.7830 124° Southeast 482 555 35,100 60 Climbing FlightAware
06:23AM 44.2800 5.8840 125° Southeast 482 555 35,100  Level FlightAware
06:24AM 44.2240 6.0050 123° Southeast 485 558 35,100  Level FlightAware
06:25AM 44.1710 6.1220 122° Southeast 485 558 35,100  Level FlightAware
06:26AM 44.1340 6.2060 122° Southeast 484 557 35,100 -120 Level FlightAware
06:26AM 44.0730 6.3430 122° Southeast 483 556 35,000  Descending FlightAware
06:27AM 44.0310 6.4350 122° Southeast 483 556 35,100 60 Climbing FlightAware
06:28AM 43.9750 6.5580 122° Southeast 482 555 35,100 -120 Level FlightAware
06:28AM 43.9220 6.6730 123° Southeast 483 556 35,000  Descending FlightAware
06:29AM 43.8700 6.7850 123° Southeast 483 556 35,100  Climbing FlightAware
06:30AM 43.8220 6.8900 122° Southeast 483 556 35,000  Descending FlightAware
06:31AM 43.7710 6.9990 123° Southeast 485 558 35,100 60 Climbing FlightAware
06:31AM 43.7210 7.1090 122° Southeast 486 559 35,100  Level FlightAware
06:32AM 43.6750 7.2050 124° Southeast 486 559 35,100  Level FlightAware
06:33AM 43.6170 7.3320 122° Southeast 485 558 35,100  Level FlightAware
06:33AM 43.5690 7.4340 123° Southeast 485 558 35,100  Level FlightAware
06:34AM 43.5120 7.5550 123° Southeast 484 557 35,100 -120 Level FlightAware
06:35AM 43.4640 7.6560 123° Southeast 483 556 35,000  Descending FlightAware
06:35AM 43.4110 7.7660 124° Southeast 483 556 35,100  Climbing FlightAware
06:36AM 43.3590 7.8760 123° Southeast 483 556 35,000 -120 Descending FlightAware
06:37AM 43.3100 7.9760 124° Southeast 483 556 35,000  Level FlightAware
06:38AM 43.2600 8.0810 123° Southeast 482 555 35,000  Level FlightAware
06:38AM 43.2040 8.1990 123° Southeast 484 557 35,000 60 Level FlightAware
06:39AM 43.1510 8.3060 124° Southeast 485 558 35,100 540 Climbing FlightAware
06:40AM 43.1010 8.4120 123° Southeast 488 562 35,800 960 Climbing FlightAware
06:40AM 43.0560 8.5060 123° Southeast 493 567 36,400 840 Climbing FlightAware
06:41AM 42.9960 8.6350 122° Southeast 495 570 37,000 420 Climbing FlightAware
06:42AM 42.9420 8.7510 122° Southeast 497 572 37,100  Climbing FlightAware
06:42AM 42.8940 8.8510 123° Southeast 498 573 37,000  Descending FlightAware
06:43AM 42.8400 8.9680 122° Southeast 497 572 37,100 60 Climbing FlightAware
06:44AM 42.7920 9.0700 123° Southeast 497 572 37,100 -120 Level FlightAware
06:45AM 42.7340 9.1940 122° Southeast 495 570 37,000  Descending FlightAware
06:45AM 42.6860 9.2960 123° Southeast 495 570 37,100 60 Climbing FlightAware
06:46AM 42.6150 9.4450 123° Southeast 495 570 37,100  Level FlightAware
06:47AM 42.5660 9.5490 123° Southeast 494 568 37,100 -120 Level FlightAware
06:48AM 42.5120 9.6650 122° Southeast 495 570 37,000 -120 Descending FlightAware
06:48AM 42.4660 9.7640 122° Southeast 496 571 37,000 60 Level FlightAware
06:49AM 42.4080 9.8850 123° Southeast 497 572 37,100 60 Climbing FlightAware
06:50AM 42.3560 9.9950 123° Southeast 497 572 37,100 -120 Level FlightAware
06:50AM 42.3050 10.1050 122° Southeast 497 572 37,000 -120 Descending FlightAware
06:51AM 42.2580 10.2050 122° Southeast 496 571 37,000  Level FlightAware
06:52AM 42.1990 10.3300 122° Southeast 495 570 37,000 60 Level FlightAware
06:52AM 42.1550 10.4240 122° Southeast 496 571 37,100 60 Climbing FlightAware
06:53AM 42.1020 10.5360 123° Southeast 497 572 37,100  Level FlightAware
06:54AM 42.0470 10.6540 122° Southeast 499 574 37,100 -120 Level FlightAware
06:55AM 41.9840 10.7880 122° Southeast 496 571 37,000  Descending FlightAware
06:56AM 41.9270 10.9060 123° Southeast 502 578 37,100 60 Climbing FlightAware
06:56AM 41.8780 11.0080 123° Southeast 500 575 37,100  Level FlightAware
06:57AM 41.8220 11.1270 122° Southeast 505 581 37,100  Level FlightAware
06:58AM 41.7710 11.2360 122° Southeast 502 578 37,100  Level FlightAware
06:58AM 41.7220 11.3390 122° Southeast 507 583 37,100  Level FlightAware
06:59AM 41.6650 11.4610 122° Southeast 503 579 37,100  Level FlightAware
07:00AM 41.6150 11.5640 123° Southeast 502 578 37,100  Level FlightAware
07:00AM 41.5650 11.6700 122° Southeast 507 583 37,100  Level FlightAware
07:01AM 41.5080 11.7890 123° Southeast 507 583 37,100  Level FlightAware
07:02AM 41.4510 11.9070 123° Southeast 508 585 37,100  Level FlightAware
07:03AM 41.4000 12.0120 123° Southeast 507 583 37,100  Level FlightAware
07:03AM 41.3490 12.1200 122° Southeast 507 583 37,100  Level FlightAware
07:04AM 41.2910 12.2380 123° Southeast 508 585 37,100  Level FlightAware
07:05AM 41.2390 12.3450 123° Southeast 508 585 37,100  Level FlightAware
07:05AM 41.1880 12.4500 123° Southeast 507 583 37,100  Level FlightAware
07:06AM 41.1400 12.5490 123° Southeast 507 583 37,100  Level FlightAware
07:07AM 41.0810 12.6710 123° Southeast 508 585 37,100 -120 Level FlightAware
07:07AM 41.0300 12.7760 123° Southeast 509 586 37,000  Descending FlightAware
07:08AM 40.9870 12.9040 114° Southeast 511 588 37,100 60 Climbing FlightAware
07:09AM 40.9540 13.0180 111° Southeast 514 592 37,100  Level FlightAware
07:10AM 40.9180 13.1510 110° East 514 592 37,100  Level FlightAware
07:10AM 40.8860 13.2690 110° East 515 593 37,100  Level FlightAware
07:11AM 40.8480 13.4050 110° East 516 594 37,100  Level FlightAware
07:12AM 40.8180 13.5120 110° East 518 596 37,100  Level FlightAware
07:12AM 40.7760 13.6600 111° Southeast 519 597 37,100  Level FlightAware
07:13AM 40.7430 13.7750 111° Southeast 519 597 37,100  Level FlightAware
07:14AM 40.7050 13.9090 110° East 519 597 37,100  Level FlightAware
07:14AM 40.6630 14.0230 116° Southeast 518 596 37,100  Level FlightAware
07:15AM 40.6150 14.1430 118° Southeast 518 596 37,100 -120 Level FlightAware
07:16AM 40.5700 14.2540 118° Southeast 517 595 37,000  Descending FlightAware
07:17AM 40.5250 14.3680 117° Southeast 516 594 37,100  Climbing FlightAware
07:17AM 40.4740 14.4950 118° Southeast 514 592 37,000 -120 Descending FlightAware
07:18AM 40.4290 14.6050 118° Southeast 513 590 37,000 60 Level FlightAware
07:19AM 40.3850 14.7150 118° Southeast 513 590 37,100  Climbing FlightAware
07:19AM 40.3360 14.8360 118° Southeast 511 588 37,000 -120 Descending FlightAware
07:20AM 40.2910 14.9450 118° Southeast 511 588 37,000 60 Level FlightAware
07:21AM 40.2410 15.0680 118° Southeast 511 588 37,100 60 Climbing FlightAware
07:21AM 40.1960 15.1760 119° Southeast 510 587 37,100  Level FlightAware
07:22AM 40.1510 15.2850 118° Southeast 511 588 37,100  Level FlightAware
07:23AM 40.1000 15.4070 119° Southeast 510 587 37,100  Level FlightAware
07:24AM 40.0560 15.5150 118° Southeast 511 588 37,100 -120 Level FlightAware
07:24AM 40.0050 15.6370 119° Southeast 509 586 37,000  Descending FlightAware
07:25AM 39.9580 15.7500 118° Southeast 508 585 37,100 60 Climbing FlightAware
07:26AM 39.9130 15.8540 119° Southeast 509 586 37,100  Level FlightAware
07:26AM 39.8630 15.9730 119° Southeast 510 587 37,100  Level FlightAware
07:27AM 39.8180 16.0810 118° Southeast 511 588 37,100 -120 Level FlightAware
07:28AM 39.7730 16.1850 119° Southeast 510 587 37,000  Descending FlightAware
07:28AM 39.7180 16.3140 119° Southeast 509 586 37,100 60 Climbing FlightAware
07:29AM 39.6700 16.4260 119° Southeast 510 587 37,100  Level FlightAware
07:30AM 39.6240 16.5330 119° Southeast 511 588 37,100  Level FlightAware
07:31AM 39.5730 16.6500 119° Southeast 509 586 37,100  Level FlightAware
07:31AM 39.5280 16.7570 119° Southeast 509 586 37,100 -120 Level FlightAware
07:32AM 39.4770 16.8740 119° Southeast 511 588 37,000  Descending FlightAware
07:33AM 39.4350 16.9700 120° Southeast 512 589 37,100  Climbing FlightAware
07:33AM 39.3870 17.0790 120° Southeast 511 588 37,000  Descending FlightAware
07:34AM 39.3370 17.1930 120° Southeast 510 587 37,100 60 Climbing FlightAware
07:35AM 39.3070 17.2590 120° Southeast 510 587 37,100  Level FlightAware
07:35AM 39.2510 17.3860 120° Southeast 512 589 37,100  Level FlightAware
07:36AM 39.2000 17.5030 119° Southeast 512 589 37,100  Level FlightAware
07:37AM 39.1540 17.6070 120° Southeast 513 590 37,100  Level FlightAware
07:37AM 39.1080 17.7100 120° Southeast 515 593 37,100  Level FlightAware
07:38AM 39.0550 17.8270 120° Southeast 518 596 37,100 -120 Level FlightAware
07:39AM 38.9990 17.9500 120° Southeast 520 598 37,000  Descending FlightAware
07:40AM 38.9470 18.0650 120° Southeast 522 601 37,100 60 Climbing FlightAware
07:40AM 38.9010 18.1670 120° Southeast 524 603 37,100  Level FlightAware
07:41AM 38.8470 18.2860 120° Southeast 527 606 37,100  Level FlightAware
07:42AM 38.8010 18.3860 121° Southeast 528 608 37,100  Level FlightAware
07:42AM 38.7510 18.4970 120° Southeast 529 609 37,100 -120 Level FlightAware
07:43AM 38.6870 18.6340 121° Southeast 529 609 37,000  Descending FlightAware
07:44AM 38.6410 18.7370 120° Southeast 528 608 37,100 60 Climbing FlightAware
07:44AM 38.5910 18.8440 121° Southeast 527 606 37,100  Level FlightAware
07:45AM 38.5460 18.9400 121° Southeast 527 606 37,100  Level FlightAware
07:46AM 38.4890 19.1250 111° Southeast 535 616 37,100  Level FlightAware
07:47AM 38.4590 19.2280 110° East 532 612 37,100  Level FlightAware
07:47AM 38.4210 19.3540 111° Southeast 535 616 37,100  Level FlightAware
07:48AM 38.3810 19.4800 112° Southeast 532 612 37,100  Level FlightAware
07:49AM 38.3430 19.5970 112° Southeast 533 613 37,100  Level FlightAware
07:49AM 38.3100 19.6980 113° Southeast 536 617 37,100  Level FlightAware
07:50AM 38.2710 19.8220 112° Southeast 537 618 37,100  Level FlightAware
07:51AM 38.2310 19.9540 111° Southeast 537 618 37,100  Level FlightAware
07:51AM 38.1850 20.1040 111° Southeast 537 618 37,100  Level FlightAware
07:52AM 38.1460 20.2310 111° Southeast 537 618 37,100  Level FlightAware
07:53AM 38.1040 20.3690 111° Southeast 539 620 37,100  Level FlightAware
07:54AM 38.0670 20.4860 112° Southeast 538 619 37,100  Level FlightAware
07:55AM 38.0160 20.6510 111° Southeast 538 619 37,100 -120 Level FlightAware
07:55AM 37.9810 20.7590 112° Southeast 539 620 37,000  Descending FlightAware
07:56AM 37.9380 20.8970 112° Southeast 538 619 37,100 60 Climbing FlightAware
07:57AM 37.9060 20.9990 112° Southeast 539 620 37,100  Level FlightAware
07:57AM 37.8590 21.1490 112° Southeast 540 621 37,100  Level FlightAware
07:58AM 37.8210 21.2660 112° Southeast 541 623 37,100  Level FlightAware
07:59AM 37.7820 21.3890 112° Southeast 541 623 37,100  Level FlightAware
07:59AM 37.7410 21.5150 112° Southeast 541 623 37,100  Level FlightAware
08:00AM 37.7010 21.6410 112° Southeast 541 623 37,100  Level FlightAware
08:01AM 37.6630 21.7580 112° Southeast 541 623 37,100  Level FlightAware
08:02AM 37.6230 21.8800 112° Southeast 540 621 37,100 -120 Level FlightAware
08:02AM 37.5810 22.0080 112° Southeast 539 620 37,000  Descending FlightAware
08:03AM 37.5420 22.1270 112° Southeast 540 621 37,100 60 Climbing FlightAware
08:04AM 37.5040 22.2430 112° Southeast 541 623 37,100  Level FlightAware
08:04AM 37.4640 22.3620 113° Southeast 541 623 37,100  Level FlightAware
08:05AM 37.4220 22.4900 112° Southeast 539 620 37,100  Level FlightAware
08:06AM 37.3800 22.6140 113° Southeast 540 621 37,100 -120 Level FlightAware
08:06AM 37.3400 22.7320 113° Southeast 541 623 37,000 -120 Descending FlightAware
08:07AM 37.2970 22.8600 113° Southeast 540 621 37,000 60 Level FlightAware
08:08AM 37.2590 22.9720 113° Southeast 541 623 37,100 60 Climbing FlightAware
08:09AM 37.2170 23.0960 113° Southeast 541 623 37,100  Level FlightAware
08:09AM 37.1740 23.2230 113° Southeast 541 623 37,100 -120 Level FlightAware
08:10AM 37.1340 23.3390 113° Southeast 543 625 37,000  Descending FlightAware
08:11AM 37.0800 23.4950 113° Southeast 545 627 37,100  Climbing FlightAware
08:12AM 37.0150 23.6830 113° Southeast 545 627 37,100  Level FlightAware
08:13AM 36.9720 23.8080 113° Southeast 547 629 37,100  Level FlightAware
08:13AM 36.9270 23.9350 114° Southeast 547 629 37,100  Level FlightAware
08:14AM 36.8870 24.0510 113° Southeast 546 628 37,100  Level FlightAware
08:15AM 36.8470 24.1630 114° Southeast 547 629 37,100  Level FlightAware
08:15AM 36.8030 24.2870 114° Southeast 546 628 37,100  Level FlightAware
08:16AM 36.7590 24.4110 114° Southeast 547 629 37,100  Level FlightAware
08:17AM 36.7190 24.5230 114° Southeast 547 629 37,100  Level FlightAware
08:18AM 36.6720 24.6530 114° Southeast 548 631 37,100  Level FlightAware
08:18AM 36.6280 24.7770 114° Southeast 548 631 37,100  Level FlightAware
08:19AM 36.5840 24.8980 114° Southeast 549 632 37,100  Level FlightAware
08:20AM 36.5410 25.0180 114° Southeast 549 632 37,100  Level FlightAware
08:20AM 36.4980 25.1360 114° Southeast 548 631 37,100 -120 Level FlightAware
08:21AM 36.4540 25.2560 114° Southeast 547 629 37,000  Descending FlightAware
08:22AM 36.4110 25.3740 114° Southeast 547 629 37,100 60 Climbing FlightAware
08:22AM 36.3690 25.4880 115° Southeast 546 628 37,100  Level FlightAware
08:23AM 36.3240 25.6100 115° Southeast 544 626 37,100  Level FlightAware
08:24AM 36.2810 25.7260 115° Southeast 541 623 37,100 -120 Level FlightAware
08:25AM 36.2340 25.8530 115° Southeast 542 624 37,000  Descending FlightAware
08:25AM 36.1910 25.9680 115° Southeast 542 624 37,100  Climbing FlightAware
08:26AM 36.1430 26.0950 115° Southeast 543 625 37,000  Descending FlightAware
08:27AM 36.1010 26.2080 115° Southeast 545 627 37,100 60 Climbing FlightAware
08:27AM 36.0640 26.3070 115° Southeast 543 625 37,100 -120 Level FlightAware
08:28AM 35.9940 26.4910 115° Southeast 547 629 37,000  Descending FlightAware
08:29AM 35.9500 26.6050 115° Southeast 548 631 37,100  Climbing FlightAware
08:30AM 35.9140 26.6990 115° Southeast 550 633 37,000  Descending FlightAware
08:30AM 35.8630 26.8330 115° Southeast 550 633 37,100 60 Climbing FlightAware
08:31AM 35.8140 26.9610 115° Southeast 551 634 37,100  Level FlightAware
08:32AM 35.7740 27.0680 115° Southeast 551 634 37,100  Level FlightAware
08:32AM 35.7230 27.1920 117° Southeast 550 633 37,100  Level FlightAware
08:33AM 35.6740 27.3190 115° Southeast 549 632 37,100 -120 Level FlightAware
08:34AM 35.6250 27.4440 116° Southeast 552 635 37,000  Descending FlightAware
08:35AM 35.5860 27.5430 116° Southeast 552 635 37,100 60 Climbing FlightAware
08:35AM 35.5500 27.6370 115° Southeast 552 635 37,100  Level FlightAware
08:36AM 35.5050 27.7550 115° Southeast 552 635 37,100  Level FlightAware
08:37AM 35.4740 27.8380 115° Southeast 552 635 37,100  Level FlightAware
08:37AM 35.3930 28.0320 117° Southeast 551 634 37,100  Level FlightAware
08:38AM 35.3420 28.1580 116° Southeast 550 633 37,100  Level FlightAware
08:39AM 35.2980 28.2670 116° Southeast 547 629 37,100 -120 Level FlightAware
08:40AM 35.2490 28.3890 116° Southeast 546 628 37,000 -120 Descending FlightAware
08:40AM 35.2030 28.5030 116° Southeast 545 627 37,000  Level FlightAware
08:41AM 35.1580 28.6130 117° Southeast 545 627 37,000 60 Level FlightAware
08:42AM 35.1020 28.7510 116° Southeast 545 627 37,100  Climbing FlightAware
08:43AM 35.0150 28.9640 116° Southeast 547 629 37,100  Level FlightAware
08:44AM 34.9700 29.0750 116° Southeast 551 634 37,100  Level FlightAware
08:44AM 34.9200 29.1970 117° Southeast 553 636 37,100  Level FlightAware
08:45AM 34.8750 29.3020 118° Southeast 554 638 37,100  Level FlightAware
08:46AM 34.8370 29.3980 116° Southeast 554 638 37,100  Level FlightAware
08:46AM 34.7840 29.5220 117° Southeast 549 632 37,100  Level FlightAware
08:47AM 34.7270 29.6600 117° Southeast 548 631 37,100 -120 Level FlightAware
08:48AM 34.6820 29.7650 118° Southeast 546 628 37,000  Descending FlightAware
08:49AM 34.6330 29.8830 117° Southeast 545 627 37,100 60 Climbing FlightAware
08:49AM 34.5870 29.9970 116° Southeast 545 627 37,100  Level FlightAware
08:50AM 34.5290 30.1180 120° Southeast 539 620 37,100 -120 Level FlightAware
08:51AM 34.4610 30.2530 121° Southeast 543 625 37,000 -120 Descending FlightAware
08:52AM 34.4040 30.3690 121° Southeast 545 627 37,000  Level FlightAware
08:52AM 34.3520 30.4770 120° Southeast 546 628 37,000  Level FlightAware
08:53AM 34.2960 30.5930 120° Southeast 547 629 37,000 60 Level FlightAware
08:54AM 34.2420 30.7040 120° Southeast 550 633 37,100 60 Climbing FlightAware
08:54AM 34.1860 30.8200 120° Southeast 546 628 37,100 -120 Level FlightAware
08:55AM 34.1340 30.9260 121° Southeast 546 628 37,000  Descending FlightAware
08:56AM 34.0750 31.0450 121° Southeast 547 629 37,100 60 Climbing FlightAware
08:57AM 34.0240 31.1480 121° Southeast 547 629 37,100 -120 Level FlightAware
08:57AM 33.9770 31.2430 121° Southeast 547 629 37,000  Descending FlightAware
08:58AM 33.9160 31.3670 121° Southeast 548 631 37,100 60 Climbing FlightAware
08:59AM 33.8580 31.4830 121° Southeast 546 628 37,100  Level FlightAware
08:59AM 33.8060 31.5840 122° Southeast 544 626 37,100 -120 Level FlightAware
09:00AM 33.7550 31.6890 120° Southeast 544 626 37,000 -120 Descending FlightAware
09:01AM 33.6940 31.8110 121° Southeast 542 624 37,000 60 Level FlightAware
09:01AM 33.6410 31.9150 121° Southeast 542 624 37,100 60 Climbing FlightAware
09:02AM 33.5810 32.0310 122° Southeast 542 624 37,100  Level FlightAware
09:03AM 33.5330 32.1270 121° Southeast 541 623 37,100 -120 Level FlightAware
09:04AM 33.4730 32.2450 121° Southeast 540 621 37,000  Descending FlightAware
09:04AM 33.4010 32.3860 121° Southeast 543 625 37,100  Climbing FlightAware
09:05AM 33.3510 32.4840 121° Southeast 539 620 37,000 -780 Descending FlightAware
09:06AM 33.2920 32.5980 122° Southeast 532 612 36,000 -1,440 Descending FlightAware
09:07AM 33.2350 32.7090 122° Southeast 535 616 35,000 -780 Descending FlightAware
09:07AM 33.1740 32.8280 121° Southeast 540 621 34,900 -720 Descending FlightAware
09:08AM 33.1220 32.9280 122° Southeast 520 598 34,000 -1,440 Descending FlightAware
09:09AM 33.0740 33.0210 122° Southeast 503 579 33,000 -1,920 Descending FlightAware
09:09AM 33.0210 33.1250 121° Southeast 493 567 31,400 -2,220 Descending FlightAware
09:10AM 32.9730 33.2190 121° Southeast 484 557 29,900 -2,340 Descending FlightAware
09:10AM 32.9440 33.2760 121° Southeast 479 551 28,900 -2,340 Descending FlightAware
09:11AM 32.9030 33.3560 121° Southeast 471 542 27,600 -1,920 Descending FlightAware
09:12AM 32.8800 33.4000 122° Southeast 464 534 26,900 -1,620 Descending FlightAware
09:12AM 32.8240 33.5100 121° Southeast 434 499 25,700 -1,680 Descending FlightAware
09:13AM 32.8040 33.6080 104° East 431 496 24,500 -1,800 Descending FlightAware
09:14AM 32.8010 33.7100 92° East 417 480 23,200 -1,680 Descending FlightAware
09:14AM 32.7990 33.7890 92° East 407 468 22,300 -1,740 Descending FlightAware
09:15AM 32.7950 33.8980 92° East 399 459 20,800 -1,860 Descending FlightAware
09:16AM 32.7910 33.9860 93° East 390 449 19,600 -1,740 Descending FlightAware
09:16AM 32.7540 34.0600 121° Southeast 362 417 18,400 -1,680 Descending FlightAware
09:17AM 32.6980 34.0930 154° Southeast 330 380 17,300 -1,500 Descending FlightAware
09:18AM 32.6580 34.1060 165° South 331 381 16,400 -1,980 Descending FlightAware
09:19AM 32.5760 34.1310 166° South 336 387 14,700 -2,280 Descending FlightAware
09:19AM 32.5050 34.1540 165° South 339 390 13,100 -1,680 Descending FlightAware
09:20AM 32.4540 34.1950 146° Southeast 337 388 12,300 -1,680 Descending FlightAware
09:21AM 32.4120 34.2450 135° Southeast 334 384 11,000 -1,080 Descending FlightAware
09:21AM 32.3710 34.2960 134° Southeast 332 382 10,800 -180 Descending FlightAware
09:22AM 32.3390 34.3360 133° Southeast 332 382 10,800  Level FlightAware
09:25AM 32.1133 34.6500 125° Southeast  Level FlightAware Approximate
09:26AM 32.0443 34.7928 125° Southeast  Level FlightAware Approximate
09:27AM 32.0000 34.8667 125° Southeast  Level FlightAware Approximate
09:28AM 32.0095 34.8769 125° Southeast  Level Estimated
09:29AM 32.0095 34.8769 125° Southeast  Level Estimated
09:30AM 32.0095 34.8769 125° Southeast  Level Estimated
09:31AM 32.0095 34.8769 125° Southeast  Level Estimated
09:32AM 32.0095 34.8769 125° Southeast  Level Estimated
09:33AM 32.0095 34.8769 125° Southeast  Level Estimated
09:34AM 32.0095 34.8769 125° Southeast  Level Estimated